sensor_id;sensor_type;location;lat;lon;timestamp;P1;durP1;ratioP1;P2;durP2;ratioP2
49488;SDS011;35382;51.484;11.476;2023-02-28T00:00:15;3.72;;;1.98;;
49488;SDS011;35382;51.484;11.476;2023-02-28T00:01:56;4.30;;;2.28;;
49488;SDS011;35382;51.484;11.476;2023-02-28T00:03:37;3.90;;;1.63;;
49488;SDS011;35382;51.484;11.476;2023-02-28T00:05:19;3.88;;;1.90;;
49488;SDS011;35382;51.484;11.476;2023-02-28T00:07:01;4.72;;;2.00;;
49488;SDS011;35382;51.484;11.476;2023-02-28T00:08:42;6.22;;;1.90;;
49488;SDS011;35382;51.484;11.476;2023-02-28T00:10:28;4.60;;;2.00;;
49488;SDS011;35382;51.484;11.476;2023-02-28T00:12:10;3.85;;;1.88;;
49488;SDS011;35382;51.484;11.476;2023-02-28T00:13:51;3.53;;;1.88;;
49488;SDS011;35382;51.484;11.476;2023-02-28T00:15:32;4.55;;;1.65;;
49488;SDS011;35382;51.484;11.476;2023-02-28T00:17:14;4.00;;;2.25;;
49488;SDS011;35382;51.484;11.476;2023-02-28T00:18:54;4.30;;;1.92;;
49488;SDS011;35382;51.484;11.476;2023-02-28T00:20:35;4.45;;;2.00;;
49488;SDS011;35382;51.484;11.476;2023-02-28T00:22:17;3.40;;;1.70;;
49488;SDS011;35382;51.484;11.476;2023-02-28T00:23:59;4.95;;;2.08;;
49488;SDS011;35382;51.484;11.476;2023-02-28T00:25:40;3.03;;;1.75;;
49488;SDS011;35382;51.484;11.476;2023-02-28T00:27:21;4.63;;;1.70;;
49488;SDS011;35382;51.484;11.476;2023-02-28T00:29:02;3.80;;;1.65;;
49488;SDS011;35382;51.484;11.476;2023-02-28T00:30:43;4.45;;;1.88;;
49488;SDS011;35382;51.484;11.476;2023-02-28T00:32:24;4.88;;;2.15;;
49488;SDS011;35382;51.484;11.476;2023-02-28T00:34:07;4.35;;;1.60;;
49488;SDS011;35382;51.484;11.476;2023-02-28T00:35:48;2.88;;;1.67;;
49488;SDS011;35382;51.484;11.476;2023-02-28T00:37:29;4.47;;;1.90;;
49488;SDS011;35382;51.484;11.476;2023-02-28T00:39:11;3.70;;;2.00;;
49488;SDS011;35382;51.484;11.476;2023-02-28T00:40:52;4.13;;;1.75;;
49488;SDS011;35382;51.484;11.476;2023-02-28T00:42:35;4.10;;;1.65;;
49488;SDS011;35382;51.484;11.476;2023-02-28T00:44:17;4.57;;;1.77;;
49488;SDS011;35382;51.484;11.476;2023-02-28T00:46:02;4.95;;;1.77;;
49488;SDS011;35382;51.484;11.476;2023-02-28T00:47:44;3.50;;;1.75;;
49488;SDS011;35382;51.484;11.476;2023-02-28T00:49:27;5.13;;;2.10;;
49488;SDS011;35382;51.484;11.476;2023-02-28T00:51:08;3.75;;;2.00;;
49488;SDS011;35382;51.484;11.476;2023-02-28T00:52:49;3.70;;;1.50;;
49488;SDS011;35382;51.484;11.476;2023-02-28T00:54:30;5.13;;;2.10;;
49488;SDS011;35382;51.484;11.476;2023-02-28T00:56:11;4.97;;;2.05;;
49488;SDS011;35382;51.484;11.476;2023-02-28T00:57:52;5.35;;;1.95;;
49488;SDS011;35382;51.484;11.476;2023-02-28T00:59:33;4.43;;;1.80;;
49488;SDS011;35382;51.484;11.476;2023-02-28T01:01:14;4.50;;;1.85;;
49488;SDS011;35382;51.484;11.476;2023-02-28T01:02:54;3.88;;;1.73;;
49488;SDS011;35382;51.484;11.476;2023-02-28T01:04:36;3.40;;;1.98;;
49488;SDS011;35382;51.484;11.476;2023-02-28T01:06:17;4.43;;;1.80;;
49488;SDS011;35382;51.484;11.476;2023-02-28T01:07:58;3.45;;;1.77;;
49488;SDS011;35382;51.484;11.476;2023-02-28T01:09:39;3.85;;;2.00;;
49488;SDS011;35382;51.484;11.476;2023-02-28T01:11:21;3.90;;;1.92;;
49488;SDS011;35382;51.484;11.476;2023-02-28T01:13:02;3.35;;;1.77;;
49488;SDS011;35382;51.484;11.476;2023-02-28T01:14:43;3.85;;;1.95;;
49488;SDS011;35382;51.484;11.476;2023-02-28T01:16:24;5.40;;;2.30;;
49488;SDS011;35382;51.484;11.476;2023-02-28T01:18:06;5.43;;;2.83;;
49488;SDS011;35382;51.484;11.476;2023-02-28T01:19:47;6.03;;;2.80;;
49488;SDS011;35382;51.484;11.476;2023-02-28T01:21:28;5.20;;;2.30;;
49488;SDS011;35382;51.484;11.476;2023-02-28T01:23:10;5.03;;;2.20;;
49488;SDS011;35382;51.484;11.476;2023-02-28T01:24:51;4.72;;;2.13;;
49488;SDS011;35382;51.484;11.476;2023-02-28T01:26:32;4.30;;;2.35;;
49488;SDS011;35382;51.484;11.476;2023-02-28T01:28:13;5.10;;;2.47;;
49488;SDS011;35382;51.484;11.476;2023-02-28T01:29:54;5.47;;;2.47;;
49488;SDS011;35382;51.484;11.476;2023-02-28T01:31:35;5.22;;;2.20;;
49488;SDS011;35382;51.484;11.476;2023-02-28T01:33:16;6.57;;;2.63;;
49488;SDS011;35382;51.484;11.476;2023-02-28T01:34:56;5.53;;;2.40;;
49488;SDS011;35382;51.484;11.476;2023-02-28T01:36:37;5.32;;;2.10;;
49488;SDS011;35382;51.484;11.476;2023-02-28T01:38:18;5.50;;;2.50;;
49488;SDS011;35382;51.484;11.476;2023-02-28T01:39:59;3.88;;;1.95;;
49488;SDS011;35382;51.484;11.476;2023-02-28T01:41:40;6.97;;;3.08;;
49488;SDS011;35382;51.484;11.476;2023-02-28T01:43:23;6.82;;;3.15;;
49488;SDS011;35382;51.484;11.476;2023-02-28T01:45:22;6.57;;;2.97;;
49488;SDS011;35382;51.484;11.476;2023-02-28T01:47:06;6.47;;;3.00;;
49488;SDS011;35382;51.484;11.476;2023-02-28T01:48:51;7.88;;;3.70;;
49488;SDS011;35382;51.484;11.476;2023-02-28T01:50:39;5.55;;;2.75;;
49488;SDS011;35382;51.484;11.476;2023-02-28T01:52:24;4.95;;;2.83;;
49488;SDS011;35382;51.484;11.476;2023-02-28T01:54:09;10.25;;;5.43;;
49488;SDS011;35382;51.484;11.476;2023-02-28T01:55:54;9.48;;;5.72;;
49488;SDS011;35382;51.484;11.476;2023-02-28T01:57:36;9.65;;;5.18;;
49488;SDS011;35382;51.484;11.476;2023-02-28T01:59:33;8.30;;;5.03;;
49488;SDS011;35382;51.484;11.476;2023-02-28T02:01:20;9.05;;;4.63;;
49488;SDS011;35382;51.484;11.476;2023-02-28T02:03:06;6.90;;;4.15;;
49488;SDS011;35382;51.484;11.476;2023-02-28T02:05:06;7.10;;;4.15;;
49488;SDS011;35382;51.484;11.476;2023-02-28T02:06:49;6.07;;;3.20;;
49488;SDS011;35382;51.484;11.476;2023-02-28T02:08:30;6.32;;;3.50;;
49488;SDS011;35382;51.484;11.476;2023-02-28T02:10:12;5.53;;;3.13;;
49488;SDS011;35382;51.484;11.476;2023-02-28T02:11:58;5.30;;;3.33;;
49488;SDS011;35382;51.484;11.476;2023-02-28T02:15:54;4.22;;;2.70;;
49488;SDS011;35382;51.484;11.476;2023-02-28T02:17:56;6.55;;;2.53;;
49488;SDS011;35382;51.484;11.476;2023-02-28T02:19:58;4.93;;;2.50;;
49488;SDS011;35382;51.484;11.476;2023-02-28T02:22:24;5.78;;;2.22;;
49488;SDS011;35382;51.484;11.476;2023-02-28T02:34:51;4.82;;;2.10;;
49488;SDS011;35382;51.484;11.476;2023-02-28T02:36:41;4.78;;;2.50;;
49488;SDS011;35382;51.484;11.476;2023-02-28T02:40:40;5.05;;;2.38;;
49488;SDS011;35382;51.484;11.476;2023-02-28T02:42:31;5.70;;;2.30;;
49488;SDS011;35382;51.484;11.476;2023-02-28T02:44:42;4.82;;;2.30;;
49488;SDS011;35382;51.484;11.476;2023-02-28T02:46:35;5.55;;;2.20;;
49488;SDS011;35382;51.484;11.476;2023-02-28T02:48:28;6.20;;;2.50;;
49488;SDS011;35382;51.484;11.476;2023-02-28T02:50:14;3.65;;;2.15;;
49488;SDS011;35382;51.484;11.476;2023-02-28T02:52:03;7.43;;;2.90;;
49488;SDS011;35382;51.484;11.476;2023-02-28T02:53:48;5.78;;;2.50;;
49488;SDS011;35382;51.484;11.476;2023-02-28T02:55:43;5.72;;;2.47;;
49488;SDS011;35382;51.484;11.476;2023-02-28T02:57:29;5.32;;;2.50;;
49488;SDS011;35382;51.484;11.476;2023-02-28T02:59:16;5.22;;;2.47;;
49488;SDS011;35382;51.484;11.476;2023-02-28T03:01:02;7.18;;;2.70;;
49488;SDS011;35382;51.484;11.476;2023-02-28T03:02:45;4.65;;;2.45;;
49488;SDS011;35382;51.484;11.476;2023-02-28T03:04:29;4.68;;;2.22;;
49488;SDS011;35382;51.484;11.476;2023-02-28T03:06:14;5.05;;;2.35;;
49488;SDS011;35382;51.484;11.476;2023-02-28T03:07:55;5.32;;;2.30;;
49488;SDS011;35382;51.484;11.476;2023-02-28T03:09:36;7.45;;;2.67;;
49488;SDS011;35382;51.484;11.476;2023-02-28T03:11:17;5.90;;;2.85;;
49488;SDS011;35382;51.484;11.476;2023-02-28T03:13:05;4.68;;;2.30;;
49488;SDS011;35382;51.484;11.476;2023-02-28T03:15:07;8.65;;;2.70;;
49488;SDS011;35382;51.484;11.476;2023-02-28T03:16:59;6.13;;;2.30;;
49488;SDS011;35382;51.484;11.476;2023-02-28T03:20:51;4.38;;;2.40;;
49488;SDS011;35382;51.484;11.476;2023-02-28T03:22:46;6.03;;;2.50;;
49488;SDS011;35382;51.484;11.476;2023-02-28T03:26:29;6.60;;;3.20;;
49488;SDS011;35382;51.484;11.476;2023-02-28T03:28:31;5.60;;;3.25;;
49488;SDS011;35382;51.484;11.476;2023-02-28T03:30:23;5.13;;;2.47;;
49488;SDS011;35382;51.484;11.476;2023-02-28T03:37:03;5.05;;;2.58;;
49488;SDS011;35382;51.484;11.476;2023-02-28T03:38:56;5.35;;;2.28;;
49488;SDS011;35382;51.484;11.476;2023-02-28T03:40:48;5.70;;;2.65;;
49488;SDS011;35382;51.484;11.476;2023-02-28T03:42:32;4.93;;;2.50;;
49488;SDS011;35382;51.484;11.476;2023-02-28T03:44:17;4.78;;;2.25;;
49488;SDS011;35382;51.484;11.476;2023-02-28T03:46:04;6.22;;;2.80;;
49488;SDS011;35382;51.484;11.476;2023-02-28T03:47:55;5.25;;;2.65;;
49488;SDS011;35382;51.484;11.476;2023-02-28T03:50:27;6.32;;;2.70;;
49488;SDS011;35382;51.484;11.476;2023-02-28T03:51:51;5.43;;;2.45;;
49488;SDS011;35382;51.484;11.476;2023-02-28T03:53:38;4.97;;;2.80;;
49488;SDS011;35382;51.484;11.476;2023-02-28T03:55:22;6.85;;;2.70;;
49488;SDS011;35382;51.484;11.476;2023-02-28T03:59:20;8.88;;;3.10;;
49488;SDS011;35382;51.484;11.476;2023-02-28T04:01:10;6.60;;;2.75;;
49488;SDS011;35382;51.484;11.476;2023-02-28T04:02:55;5.35;;;2.60;;
49488;SDS011;35382;51.484;11.476;2023-02-28T04:04:36;5.88;;;2.72;;
49488;SDS011;35382;51.484;11.476;2023-02-28T04:06:18;5.47;;;2.78;;
49488;SDS011;35382;51.484;11.476;2023-02-28T04:08:07;6.15;;;2.72;;
49488;SDS011;35382;51.484;11.476;2023-02-28T04:09:50;5.30;;;2.85;;
49488;SDS011;35382;51.484;11.476;2023-02-28T04:11:42;5.47;;;2.60;;
49488;SDS011;35382;51.484;11.476;2023-02-28T04:13:29;5.38;;;2.95;;
49488;SDS011;35382;51.484;11.476;2023-02-28T04:15:10;5.18;;;2.58;;
49488;SDS011;35382;51.484;11.476;2023-02-28T04:16:51;6.07;;;2.50;;
49488;SDS011;35382;51.484;11.476;2023-02-28T04:18:33;6.05;;;2.50;;
49488;SDS011;35382;51.484;11.476;2023-02-28T04:20:13;6.47;;;3.00;;
49488;SDS011;35382;51.484;11.476;2023-02-28T04:21:54;6.50;;;2.90;;
49488;SDS011;35382;51.484;11.476;2023-02-28T04:23:35;5.03;;;2.65;;
49488;SDS011;35382;51.484;11.476;2023-02-28T04:25:16;7.25;;;2.88;;
49488;SDS011;35382;51.484;11.476;2023-02-28T04:26:57;5.57;;;3.08;;
49488;SDS011;35382;51.484;11.476;2023-02-28T04:28:38;6.13;;;3.13;;
49488;SDS011;35382;51.484;11.476;2023-02-28T04:30:19;6.78;;;2.80;;
49488;SDS011;35382;51.484;11.476;2023-02-28T04:32:00;6.03;;;2.90;;
49488;SDS011;35382;51.484;11.476;2023-02-28T04:33:42;5.82;;;2.80;;
49488;SDS011;35382;51.484;11.476;2023-02-28T04:35:23;15.90;;;6.32;;
49488;SDS011;35382;51.484;11.476;2023-02-28T04:37:04;26.58;;;8.70;;
49488;SDS011;35382;51.484;11.476;2023-02-28T04:38:47;23.38;;;8.57;;
49488;SDS011;35382;51.484;11.476;2023-02-28T04:40:28;14.13;;;5.53;;
49488;SDS011;35382;51.484;11.476;2023-02-28T04:42:09;8.23;;;3.25;;
49488;SDS011;35382;51.484;11.476;2023-02-28T04:43:51;5.20;;;3.13;;
49488;SDS011;35382;51.484;11.476;2023-02-28T04:45:33;7.38;;;3.35;;
49488;SDS011;35382;51.484;11.476;2023-02-28T04:47:15;6.13;;;2.88;;
49488;SDS011;35382;51.484;11.476;2023-02-28T04:48:58;5.20;;;2.80;;
49488;SDS011;35382;51.484;11.476;2023-02-28T04:50:39;6.32;;;3.10;;
49488;SDS011;35382;51.484;11.476;2023-02-28T04:52:20;5.95;;;2.97;;
49488;SDS011;35382;51.484;11.476;2023-02-28T04:54:01;6.47;;;3.22;;
49488;SDS011;35382;51.484;11.476;2023-02-28T04:55:42;6.88;;;3.30;;
49488;SDS011;35382;51.484;11.476;2023-02-28T04:57:23;6.22;;;3.50;;
49488;SDS011;35382;51.484;11.476;2023-02-28T04:59:04;6.28;;;3.35;;
49488;SDS011;35382;51.484;11.476;2023-02-28T05:00:45;7.22;;;3.80;;
49488;SDS011;35382;51.484;11.476;2023-02-28T05:02:26;6.32;;;3.22;;
49488;SDS011;35382;51.484;11.476;2023-02-28T05:04:06;7.38;;;3.70;;
49488;SDS011;35382;51.484;11.476;2023-02-28T05:05:49;7.28;;;4.07;;
49488;SDS011;35382;51.484;11.476;2023-02-28T05:07:30;6.22;;;3.70;;
49488;SDS011;35382;51.484;11.476;2023-02-28T05:09:11;6.93;;;4.30;;
49488;SDS011;35382;51.484;11.476;2023-02-28T05:10:54;6.57;;;4.22;;
49488;SDS011;35382;51.484;11.476;2023-02-28T05:12:35;7.07;;;4.03;;
49488;SDS011;35382;51.484;11.476;2023-02-28T05:14:16;6.05;;;3.88;;
49488;SDS011;35382;51.484;11.476;2023-02-28T05:15:57;7.47;;;3.78;;
49488;SDS011;35382;51.484;11.476;2023-02-28T05:17:38;7.68;;;3.40;;
49488;SDS011;35382;51.484;11.476;2023-02-28T05:19:19;7.40;;;3.30;;
49488;SDS011;35382;51.484;11.476;2023-02-28T05:21:01;6.28;;;3.25;;
49488;SDS011;35382;51.484;11.476;2023-02-28T05:22:45;5.82;;;3.33;;
49488;SDS011;35382;51.484;11.476;2023-02-28T05:24:26;5.68;;;3.17;;
49488;SDS011;35382;51.484;11.476;2023-02-28T05:26:07;6.90;;;3.40;;
49488;SDS011;35382;51.484;11.476;2023-02-28T05:27:48;7.20;;;3.47;;
49488;SDS011;35382;51.484;11.476;2023-02-28T05:29:29;5.47;;;3.10;;
49488;SDS011;35382;51.484;11.476;2023-02-28T05:31:10;6.35;;;3.25;;
49488;SDS011;35382;51.484;11.476;2023-02-28T05:32:51;7.95;;;3.67;;
49488;SDS011;35382;51.484;11.476;2023-02-28T05:34:32;6.53;;;3.42;;
49488;SDS011;35382;51.484;11.476;2023-02-28T05:36:13;8.02;;;3.80;;
49488;SDS011;35382;51.484;11.476;2023-02-28T05:37:54;6.57;;;3.22;;
49488;SDS011;35382;51.484;11.476;2023-02-28T05:39:35;7.63;;;3.60;;
49488;SDS011;35382;51.484;11.476;2023-02-28T05:41:17;5.95;;;3.20;;
49488;SDS011;35382;51.484;11.476;2023-02-28T05:42:59;8.27;;;4.15;;
49488;SDS011;35382;51.484;11.476;2023-02-28T05:44:43;25.60;;;10.10;;
49488;SDS011;35382;51.484;11.476;2023-02-28T05:46:24;8.57;;;4.13;;
49488;SDS011;35382;51.484;11.476;2023-02-28T05:48:05;8.65;;;3.70;;
49488;SDS011;35382;51.484;11.476;2023-02-28T05:49:46;8.82;;;3.95;;
49488;SDS011;35382;51.484;11.476;2023-02-28T05:51:27;10.00;;;3.90;;
49488;SDS011;35382;51.484;11.476;2023-02-28T05:53:08;6.00;;;3.50;;
49488;SDS011;35382;51.484;11.476;2023-02-28T05:54:49;6.13;;;3.90;;
49488;SDS011;35382;51.484;11.476;2023-02-28T05:56:30;6.38;;;3.50;;
49488;SDS011;35382;51.484;11.476;2023-02-28T05:58:11;6.95;;;3.55;;
49488;SDS011;35382;51.484;11.476;2023-02-28T05:59:52;8.10;;;3.45;;
49488;SDS011;35382;51.484;11.476;2023-02-28T06:01:34;6.72;;;3.50;;
49488;SDS011;35382;51.484;11.476;2023-02-28T06:03:16;6.85;;;3.55;;
49488;SDS011;35382;51.484;11.476;2023-02-28T06:04:56;9.70;;;3.45;;
49488;SDS011;35382;51.484;11.476;2023-02-28T06:06:37;6.88;;;3.75;;
49488;SDS011;35382;51.484;11.476;2023-02-28T06:08:19;5.78;;;3.03;;
49488;SDS011;35382;51.484;11.476;2023-02-28T06:10:01;6.22;;;3.35;;
49488;SDS011;35382;51.484;11.476;2023-02-28T06:11:42;7.00;;;3.83;;
49488;SDS011;35382;51.484;11.476;2023-02-28T06:13:23;6.45;;;3.15;;
49488;SDS011;35382;51.484;11.476;2023-02-28T06:15:04;6.57;;;3.45;;
49488;SDS011;35382;51.484;11.476;2023-02-28T06:16:50;7.45;;;3.53;;
49488;SDS011;35382;51.484;11.476;2023-02-28T06:18:31;8.85;;;4.93;;
49488;SDS011;35382;51.484;11.476;2023-02-28T06:20:12;12.88;;;6.88;;
49488;SDS011;35382;51.484;11.476;2023-02-28T06:21:53;11.70;;;6.93;;
49488;SDS011;35382;51.484;11.476;2023-02-28T06:23:34;11.82;;;9.07;;
49488;SDS011;35382;51.484;11.476;2023-02-28T06:25:16;13.35;;;10.20;;
49488;SDS011;35382;51.484;11.476;2023-02-28T06:26:57;9.95;;;7.43;;
49488;SDS011;35382;51.484;11.476;2023-02-28T06:28:45;10.18;;;6.30;;
49488;SDS011;35382;51.484;11.476;2023-02-28T06:30:26;8.95;;;5.63;;
49488;SDS011;35382;51.484;11.476;2023-02-28T06:32:10;7.35;;;5.38;;
49488;SDS011;35382;51.484;11.476;2023-02-28T06:33:51;8.15;;;5.40;;
49488;SDS011;35382;51.484;11.476;2023-02-28T06:35:32;7.85;;;5.20;;
49488;SDS011;35382;51.484;11.476;2023-02-28T06:37:13;7.47;;;5.15;;
49488;SDS011;35382;51.484;11.476;2023-02-28T06:38:54;8.07;;;4.93;;
49488;SDS011;35382;51.484;11.476;2023-02-28T06:40:37;7.40;;;4.18;;
49488;SDS011;35382;51.484;11.476;2023-02-28T06:42:18;9.30;;;4.10;;
49488;SDS011;35382;51.484;11.476;2023-02-28T06:44:01;7.38;;;4.03;;
49488;SDS011;35382;51.484;11.476;2023-02-28T06:45:43;8.25;;;4.18;;
49488;SDS011;35382;51.484;11.476;2023-02-28T06:47:24;9.27;;;4.90;;
49488;SDS011;35382;51.484;11.476;2023-02-28T06:49:05;8.68;;;5.25;;
49488;SDS011;35382;51.484;11.476;2023-02-28T06:50:49;8.48;;;4.18;;
49488;SDS011;35382;51.484;11.476;2023-02-28T06:52:30;8.20;;;3.80;;
49488;SDS011;35382;51.484;11.476;2023-02-28T06:54:11;8.20;;;4.40;;
49488;SDS011;35382;51.484;11.476;2023-02-28T06:55:53;12.52;;;6.93;;
49488;SDS011;35382;51.484;11.476;2023-02-28T06:57:34;13.23;;;7.85;;
49488;SDS011;35382;51.484;11.476;2023-02-28T06:59:16;12.88;;;7.78;;
49488;SDS011;35382;51.484;11.476;2023-02-28T07:00:58;13.63;;;6.88;;
49488;SDS011;35382;51.484;11.476;2023-02-28T07:02:39;11.15;;;6.25;;
49488;SDS011;35382;51.484;11.476;2023-02-28T07:04:20;9.40;;;5.25;;
49488;SDS011;35382;51.484;11.476;2023-02-28T07:06:02;10.52;;;6.72;;
49488;SDS011;35382;51.484;11.476;2023-02-28T07:07:44;9.48;;;6.22;;
49488;SDS011;35382;51.484;11.476;2023-02-28T07:09:27;9.82;;;5.40;;
49488;SDS011;35382;51.484;11.476;2023-02-28T07:11:10;7.90;;;4.90;;
49488;SDS011;35382;51.484;11.476;2023-02-28T07:12:52;10.30;;;4.82;;
49488;SDS011;35382;51.484;11.476;2023-02-28T07:14:33;6.88;;;4.70;;
49488;SDS011;35382;51.484;11.476;2023-02-28T07:16:16;7.82;;;4.65;;
49488;SDS011;35382;51.484;11.476;2023-02-28T07:17:57;7.53;;;4.50;;
49488;SDS011;35382;51.484;11.476;2023-02-28T07:19:41;9.55;;;5.35;;
49488;SDS011;35382;51.484;11.476;2023-02-28T07:21:22;8.60;;;4.60;;
49488;SDS011;35382;51.484;11.476;2023-02-28T07:23:03;9.70;;;4.68;;
49488;SDS011;35382;51.484;11.476;2023-02-28T07:24:44;7.63;;;4.78;;
49488;SDS011;35382;51.484;11.476;2023-02-28T07:26:26;8.20;;;4.57;;
49488;SDS011;35382;51.484;11.476;2023-02-28T07:28:07;8.23;;;4.72;;
49488;SDS011;35382;51.484;11.476;2023-02-28T07:29:52;7.05;;;4.47;;
49488;SDS011;35382;51.484;11.476;2023-02-28T07:31:35;8.27;;;5.13;;
49488;SDS011;35382;51.484;11.476;2023-02-28T07:33:17;9.32;;;5.25;;
49488;SDS011;35382;51.484;11.476;2023-02-28T07:34:58;9.77;;;5.15;;
49488;SDS011;35382;51.484;11.476;2023-02-28T07:36:39;7.65;;;4.30;;
49488;SDS011;35382;51.484;11.476;2023-02-28T07:38:20;7.18;;;4.25;;
49488;SDS011;35382;51.484;11.476;2023-02-28T07:40:01;7.43;;;4.80;;
49488;SDS011;35382;51.484;11.476;2023-02-28T07:41:47;6.55;;;4.03;;
49488;SDS011;35382;51.484;11.476;2023-02-28T07:43:28;11.60;;;4.32;;
49488;SDS011;35382;51.484;11.476;2023-02-28T07:45:10;8.07;;;4.07;;
49488;SDS011;35382;51.484;11.476;2023-02-28T07:46:52;6.95;;;4.13;;
49488;SDS011;35382;51.484;11.476;2023-02-28T07:48:34;6.90;;;4.03;;
49488;SDS011;35382;51.484;11.476;2023-02-28T07:50:15;8.23;;;4.20;;
49488;SDS011;35382;51.484;11.476;2023-02-28T07:51:59;6.65;;;4.53;;
49488;SDS011;35382;51.484;11.476;2023-02-28T07:53:40;9.18;;;4.25;;
49488;SDS011;35382;51.484;11.476;2023-02-28T07:55:20;8.50;;;5.00;;
49488;SDS011;35382;51.484;11.476;2023-02-28T07:57:01;8.15;;;4.57;;
49488;SDS011;35382;51.484;11.476;2023-02-28T07:58:43;8.98;;;4.47;;
49488;SDS011;35382;51.484;11.476;2023-02-28T08:00:24;7.55;;;3.80;;
49488;SDS011;35382;51.484;11.476;2023-02-28T08:02:05;8.38;;;4.60;;
49488;SDS011;35382;51.484;11.476;2023-02-28T08:03:46;8.73;;;3.97;;
49488;SDS011;35382;51.484;11.476;2023-02-28T08:05:27;7.60;;;4.15;;
49488;SDS011;35382;51.484;11.476;2023-02-28T08:07:08;8.15;;;4.20;;
49488;SDS011;35382;51.484;11.476;2023-02-28T08:08:50;8.27;;;4.03;;
49488;SDS011;35382;51.484;11.476;2023-02-28T08:10:31;8.20;;;3.92;;
49488;SDS011;35382;51.484;11.476;2023-02-28T08:12:12;8.35;;;4.30;;
49488;SDS011;35382;51.484;11.476;2023-02-28T08:13:54;6.32;;;3.45;;
49488;SDS011;35382;51.484;11.476;2023-02-28T08:15:35;6.97;;;4.00;;
49488;SDS011;35382;51.484;11.476;2023-02-28T08:17:16;6.43;;;3.50;;
49488;SDS011;35382;51.484;11.476;2023-02-28T08:18:57;8.18;;;4.20;;
49488;SDS011;35382;51.484;11.476;2023-02-28T08:20:38;6.95;;;3.85;;
49488;SDS011;35382;51.484;11.476;2023-02-28T08:22:19;8.30;;;3.90;;
49488;SDS011;35382;51.484;11.476;2023-02-28T08:24:00;7.15;;;3.90;;
49488;SDS011;35382;51.484;11.476;2023-02-28T08:25:41;9.05;;;4.28;;
49488;SDS011;35382;51.484;11.476;2023-02-28T08:27:22;8.65;;;4.25;;
49488;SDS011;35382;51.484;11.476;2023-02-28T08:29:03;6.70;;;4.03;;
49488;SDS011;35382;51.484;11.476;2023-02-28T08:30:44;8.70;;;3.92;;
49488;SDS011;35382;51.484;11.476;2023-02-28T08:32:25;8.52;;;4.18;;
49488;SDS011;35382;51.484;11.476;2023-02-28T08:34:06;7.85;;;3.70;;
49488;SDS011;35382;51.484;11.476;2023-02-28T08:35:48;7.38;;;3.50;;
49488;SDS011;35382;51.484;11.476;2023-02-28T08:37:29;9.73;;;4.60;;
49488;SDS011;35382;51.484;11.476;2023-02-28T08:39:10;6.32;;;3.63;;
49488;SDS011;35382;51.484;11.476;2023-02-28T08:40:58;6.93;;;3.80;;
49488;SDS011;35382;51.484;11.476;2023-02-28T08:42:40;6.32;;;4.20;;
49488;SDS011;35382;51.484;11.476;2023-02-28T08:44:21;6.22;;;3.70;;
49488;SDS011;35382;51.484;11.476;2023-02-28T08:46:02;7.90;;;3.88;;
49488;SDS011;35382;51.484;11.476;2023-02-28T08:47:43;6.88;;;3.67;;
49488;SDS011;35382;51.484;11.476;2023-02-28T08:49:24;7.13;;;3.50;;
49488;SDS011;35382;51.484;11.476;2023-02-28T08:51:06;6.20;;;3.33;;
49488;SDS011;35382;51.484;11.476;2023-02-28T08:52:49;6.78;;;3.63;;
49488;SDS011;35382;51.484;11.476;2023-02-28T08:54:30;6.72;;;3.75;;
49488;SDS011;35382;51.484;11.476;2023-02-28T08:56:13;7.03;;;3.60;;
49488;SDS011;35382;51.484;11.476;2023-02-28T08:57:57;6.53;;;3.50;;
49488;SDS011;35382;51.484;11.476;2023-02-28T08:59:38;6.88;;;4.07;;
49488;SDS011;35382;51.484;11.476;2023-02-28T09:01:20;8.25;;;4.28;;
49488;SDS011;35382;51.484;11.476;2023-02-28T09:03:03;7.50;;;3.42;;
49488;SDS011;35382;51.484;11.476;2023-02-28T09:04:44;7.03;;;3.90;;
49488;SDS011;35382;51.484;11.476;2023-02-28T09:06:27;7.65;;;4.20;;
49488;SDS011;35382;51.484;11.476;2023-02-28T09:08:09;8.40;;;4.18;;
49488;SDS011;35382;51.484;11.476;2023-02-28T09:09:51;6.63;;;4.30;;
49488;SDS011;35382;51.484;11.476;2023-02-28T09:11:35;7.07;;;4.05;;
49488;SDS011;35382;51.484;11.476;2023-02-28T09:13:17;6.20;;;3.60;;
49488;SDS011;35382;51.484;11.476;2023-02-28T09:14:58;6.25;;;3.38;;
49488;SDS011;35382;51.484;11.476;2023-02-28T09:16:39;8.45;;;4.63;;
49488;SDS011;35382;51.484;11.476;2023-02-28T09:18:20;6.90;;;3.83;;
49488;SDS011;35382;51.484;11.476;2023-02-28T09:20:01;6.72;;;4.03;;
49488;SDS011;35382;51.484;11.476;2023-02-28T09:21:42;7.30;;;3.50;;
49488;SDS011;35382;51.484;11.476;2023-02-28T09:23:23;7.35;;;4.30;;
49488;SDS011;35382;51.484;11.476;2023-02-28T09:25:05;7.97;;;3.78;;
49488;SDS011;35382;51.484;11.476;2023-02-28T09:26:46;7.93;;;4.43;;
49488;SDS011;35382;51.484;11.476;2023-02-28T09:28:26;6.70;;;3.95;;
49488;SDS011;35382;51.484;11.476;2023-02-28T09:30:09;7.60;;;3.75;;
49488;SDS011;35382;51.484;11.476;2023-02-28T09:31:51;8.75;;;4.30;;
49488;SDS011;35382;51.484;11.476;2023-02-28T09:33:32;8.18;;;4.00;;
49488;SDS011;35382;51.484;11.476;2023-02-28T09:35:14;8.13;;;4.20;;
49488;SDS011;35382;51.484;11.476;2023-02-28T09:36:56;7.43;;;3.90;;
49488;SDS011;35382;51.484;11.476;2023-02-28T09:38:37;7.28;;;3.85;;
49488;SDS011;35382;51.484;11.476;2023-02-28T09:40:19;8.73;;;4.40;;
49488;SDS011;35382;51.484;11.476;2023-02-28T09:42:04;7.90;;;4.20;;
49488;SDS011;35382;51.484;11.476;2023-02-28T09:43:48;6.95;;;4.35;;
49488;SDS011;35382;51.484;11.476;2023-02-28T09:45:34;7.03;;;4.25;;
49488;SDS011;35382;51.484;11.476;2023-02-28T09:49:14;8.65;;;4.10;;
49488;SDS011;35382;51.484;11.476;2023-02-28T09:51:04;9.32;;;4.47;;
49488;SDS011;35382;51.484;11.476;2023-02-28T09:52:50;8.40;;;4.45;;
49488;SDS011;35382;51.484;11.476;2023-02-28T09:54:31;7.00;;;4.10;;
49488;SDS011;35382;51.484;11.476;2023-02-28T09:57:00;8.15;;;4.63;;
49488;SDS011;35382;51.484;11.476;2023-02-28T10:00:18;7.85;;;4.28;;
49488;SDS011;35382;51.484;11.476;2023-02-28T10:02:24;7.65;;;4.20;;
49488;SDS011;35382;51.484;11.476;2023-02-28T10:06:17;7.60;;;4.20;;
49488;SDS011;35382;51.484;11.476;2023-02-28T10:08:03;7.25;;;4.00;;
49488;SDS011;35382;51.484;11.476;2023-02-28T10:09:58;8.05;;;4.90;;
49488;SDS011;35382;51.484;11.476;2023-02-28T10:11:43;7.35;;;4.07;;
49488;SDS011;35382;51.484;11.476;2023-02-28T10:13:27;7.35;;;4.53;;
49488;SDS011;35382;51.484;11.476;2023-02-28T10:15:31;9.30;;;4.20;;
49488;SDS011;35382;51.484;11.476;2023-02-28T10:17:15;9.43;;;3.88;;
49488;SDS011;35382;51.484;11.476;2023-02-28T10:19:06;8.32;;;3.90;;
49488;SDS011;35382;51.484;11.476;2023-02-28T10:20:53;7.93;;;4.45;;
49488;SDS011;35382;51.484;11.476;2023-02-28T10:22:51;10.38;;;4.63;;
49488;SDS011;35382;51.484;11.476;2023-02-28T10:24:39;8.30;;;4.03;;
49488;SDS011;35382;51.484;11.476;2023-02-28T10:26:24;6.70;;;4.05;;
49488;SDS011;35382;51.484;11.476;2023-02-28T10:28:12;9.80;;;4.25;;
49488;SDS011;35382;51.484;11.476;2023-02-28T10:29:55;12.40;;;4.95;;
49488;SDS011;35382;51.484;11.476;2023-02-28T10:31:37;7.65;;;4.50;;
49488;SDS011;35382;51.484;11.476;2023-02-28T10:35:15;8.15;;;5.20;;
49488;SDS011;35382;51.484;11.476;2023-02-28T10:36:57;6.82;;;4.53;;
49488;SDS011;35382;51.484;11.476;2023-02-28T10:38:47;7.25;;;4.18;;
49488;SDS011;35382;51.484;11.476;2023-02-28T10:40:30;7.32;;;3.95;;
49488;SDS011;35382;51.484;11.476;2023-02-28T10:42:21;7.70;;;4.43;;
49488;SDS011;35382;51.484;11.476;2023-02-28T10:44:18;8.02;;;4.50;;
49488;SDS011;35382;51.484;11.476;2023-02-28T10:47:55;7.10;;;4.60;;
49488;SDS011;35382;51.484;11.476;2023-02-28T10:49:36;7.72;;;4.47;;